sensor_id;sensor_type;location;lat;lon;timestamp;P1;durP1;ratioP1;P2;durP2;ratioP2
15679;SDS011;15488;48.114;11.532;2023-07-20T00:00:18;3.23;;;2.33;;
15679;SDS011;15488;48.114;11.532;2023-07-20T00:02:45;2.73;;;1.90;;
15679;SDS011;15488;48.114;11.532;2023-07-20T00:05:16;3.33;;;2.40;;
15679;SDS011;15488;48.114;11.532;2023-07-20T00:07:46;6.00;;;2.20;;
15679;SDS011;15488;48.114;11.532;2023-07-20T00:10:17;3.30;;;2.20;;
15679;SDS011;15488;48.114;11.532;2023-07-20T00:12:45;2.57;;;2.30;;
15679;SDS011;15488;48.114;11.532;2023-07-20T00:15:14;3.23;;;2.10;;
15679;SDS011;15488;48.114;11.532;2023-07-20T00:17:41;3.17;;;2.13;;
15679;SDS011;15488;48.114;11.532;2023-07-20T00:20:10;5.30;;;2.27;;
15679;SDS011;15488;48.114;11.532;2023-07-20T00:22:38;3.13;;;2.00;;
15679;SDS011;15488;48.114;11.532;2023-07-20T00:25:05;4.17;;;2.67;;
15679;SDS011;15488;48.114;11.532;2023-07-20T00:27:33;3.37;;;2.47;;
15679;SDS011;15488;48.114;11.532;2023-07-20T00:30:03;3.97;;;2.23;;
15679;SDS011;15488;48.114;11.532;2023-07-20T00:32:31;2.73;;;2.43;;
15679;SDS011;15488;48.114;11.532;2023-07-20T00:34:59;2.57;;;2.27;;
15679;SDS011;15488;48.114;11.532;2023-07-20T00:37:26;5.10;;;2.50;;
15679;SDS011;15488;48.114;11.532;2023-07-20T00:39:54;3.70;;;2.20;;
15679;SDS011;15488;48.114;11.532;2023-07-20T00:42:22;2.47;;;2.27;;
15679;SDS011;15488;48.114;11.532;2023-07-20T00:44:49;3.20;;;2.10;;
15679;SDS011;15488;48.114;11.532;2023-07-20T00:47:18;2.87;;;2.27;;
15679;SDS011;15488;48.114;11.532;2023-07-20T00:49:45;4.90;;;2.20;;
15679;SDS011;15488;48.114;11.532;2023-07-20T00:52:13;3.57;;;2.10;;
15679;SDS011;15488;48.114;11.532;2023-07-20T00:54:41;4.00;;;2.10;;
15679;SDS011;15488;48.114;11.532;2023-07-20T00:57:10;2.83;;;1.80;;
15679;SDS011;15488;48.114;11.532;2023-07-20T00:59:40;4.13;;;2.27;;
15679;SDS011;15488;48.114;11.532;2023-07-20T01:02:08;2.03;;;1.90;;
15679;SDS011;15488;48.114;11.532;2023-07-20T01:04:36;2.90;;;2.00;;
15679;SDS011;15488;48.114;11.532;2023-07-20T01:07:06;2.30;;;2.10;;
15679;SDS011;15488;48.114;11.532;2023-07-20T01:09:39;3.67;;;2.23;;
15679;SDS011;15488;48.114;11.532;2023-07-20T01:12:13;2.50;;;2.10;;
15679;SDS011;15488;48.114;11.532;2023-07-20T01:14:47;3.30;;;2.30;;
15679;SDS011;15488;48.114;11.532;2023-07-20T01:17:15;2.97;;;1.90;;
15679;SDS011;15488;48.114;11.532;2023-07-20T01:19:43;3.60;;;2.33;;
15679;SDS011;15488;48.114;11.532;2023-07-20T01:22:14;3.20;;;1.90;;
15679;SDS011;15488;48.114;11.532;2023-07-20T01:30:52;3.00;;;2.20;;
15679;SDS011;15488;48.114;11.532;2023-07-20T01:33:27;2.70;;;1.77;;
15679;SDS011;15488;48.114;11.532;2023-07-20T01:35:57;3.13;;;2.07;;
15679;SDS011;15488;48.114;11.532;2023-07-20T01:38:27;4.00;;;2.00;;
15679;SDS011;15488;48.114;11.532;2023-07-20T01:40:55;3.33;;;2.10;;
15679;SDS011;15488;48.114;11.532;2023-07-20T01:43:23;3.13;;;1.90;;
15679;SDS011;15488;48.114;11.532;2023-07-20T01:45:50;3.20;;;2.13;;
15679;SDS011;15488;48.114;11.532;2023-07-20T01:48:18;3.47;;;1.80;;
15679;SDS011;15488;48.114;11.532;2023-07-20T01:50:47;3.43;;;1.70;;
15679;SDS011;15488;48.114;11.532;2023-07-20T01:53:14;2.80;;;1.93;;
15679;SDS011;15488;48.114;11.532;2023-07-20T01:55:42;3.83;;;1.97;;
15679;SDS011;15488;48.114;11.532;2023-07-20T01:58:09;4.20;;;2.30;;
15679;SDS011;15488;48.114;11.532;2023-07-20T02:00:37;2.37;;;2.00;;
15679;SDS011;15488;48.114;11.532;2023-07-20T02:03:04;2.17;;;1.70;;
15679;SDS011;15488;48.114;11.532;2023-07-20T02:05:32;3.10;;;1.70;;
15679;SDS011;15488;48.114;11.532;2023-07-20T02:08:01;3.50;;;2.07;;
15679;SDS011;15488;48.114;11.532;2023-07-20T02:10:29;3.50;;;1.97;;
15679;SDS011;15488;48.114;11.532;2023-07-20T02:12:56;2.40;;;1.77;;
15679;SDS011;15488;48.114;11.532;2023-07-20T02:15:24;2.03;;;1.83;;
15679;SDS011;15488;48.114;11.532;2023-07-20T02:17:52;2.70;;;1.90;;
15679;SDS011;15488;48.114;11.532;2023-07-20T02:20:19;2.77;;;1.60;;
15679;SDS011;15488;48.114;11.532;2023-07-20T02:22:47;3.10;;;1.90;;
15679;SDS011;15488;48.114;11.532;2023-07-20T02:25:16;2.97;;;1.80;;
15679;SDS011;15488;48.114;11.532;2023-07-20T02:27:43;4.33;;;1.90;;
15679;SDS011;15488;48.114;11.532;2023-07-20T02:30:11;3.00;;;1.93;;
15679;SDS011;15488;48.114;11.532;2023-07-20T02:32:38;1.70;;;1.53;;
15679;SDS011;15488;48.114;11.532;2023-07-20T02:35:09;4.77;;;1.70;;
15679;SDS011;15488;48.114;11.532;2023-07-20T02:37:36;5.17;;;1.70;;
15679;SDS011;15488;48.114;11.532;2023-07-20T02:40:04;3.17;;;1.50;;
15679;SDS011;15488;48.114;11.532;2023-07-20T02:42:35;2.43;;;1.67;;
15679;SDS011;15488;48.114;11.532;2023-07-20T02:45:02;3.20;;;1.60;;
15679;SDS011;15488;48.114;11.532;2023-07-20T02:47:31;2.33;;;1.50;;
15679;SDS011;15488;48.114;11.532;2023-07-20T02:49:58;2.93;;;1.40;;
15679;SDS011;15488;48.114;11.532;2023-07-20T02:52:26;2.37;;;1.40;;
15679;SDS011;15488;48.114;11.532;2023-07-20T02:54:55;2.10;;;1.50;;
15679;SDS011;15488;48.114;11.532;2023-07-20T02:57:22;2.93;;;1.60;;
15679;SDS011;15488;48.114;11.532;2023-07-20T02:59:51;2.33;;;1.60;;
15679;SDS011;15488;48.114;11.532;2023-07-20T03:02:18;3.00;;;1.40;;
15679;SDS011;15488;48.114;11.532;2023-07-20T03:04:46;2.17;;;1.43;;
15679;SDS011;15488;48.114;11.532;2023-07-20T03:07:13;1.60;;;1.27;;
15679;SDS011;15488;48.114;11.532;2023-07-20T03:09:41;2.20;;;1.30;;
15679;SDS011;15488;48.114;11.532;2023-07-20T03:12:08;1.70;;;1.30;;
15679;SDS011;15488;48.114;11.532;2023-07-20T03:14:36;2.63;;;1.43;;
15679;SDS011;15488;48.114;11.532;2023-07-20T03:17:05;1.60;;;1.33;;
15679;SDS011;15488;48.114;11.532;2023-07-20T03:19:33;2.33;;;1.20;;
15679;SDS011;15488;48.114;11.532;2023-07-20T03:22:01;2.90;;;1.70;;
15679;SDS011;15488;48.114;11.532;2023-07-20T03:24:28;1.80;;;1.53;;
15679;SDS011;15488;48.114;11.532;2023-07-20T03:26:56;2.17;;;1.50;;
15679;SDS011;15488;48.114;11.532;2023-07-20T03:29:23;4.50;;;1.40;;
15679;SDS011;15488;48.114;11.532;2023-07-20T03:31:51;4.30;;;1.90;;
15679;SDS011;15488;48.114;11.532;2023-07-20T03:34:19;3.00;;;1.50;;
15679;SDS011;15488;48.114;11.532;2023-07-20T03:36:47;2.17;;;1.43;;
15679;SDS011;15488;48.114;11.532;2023-07-20T03:39:15;1.90;;;1.40;;
15679;SDS011;15488;48.114;11.532;2023-07-20T03:41:42;2.50;;;1.53;;
15679;SDS011;15488;48.114;11.532;2023-07-20T03:44:09;2.33;;;1.60;;
15679;SDS011;15488;48.114;11.532;2023-07-20T03:46:37;2.67;;;1.33;;
15679;SDS011;15488;48.114;11.532;2023-07-20T03:49:05;1.70;;;1.40;;
15679;SDS011;15488;48.114;11.532;2023-07-20T03:51:35;1.67;;;1.47;;
15679;SDS011;15488;48.114;11.532;2023-07-20T03:54:02;1.87;;;1.53;;
15679;SDS011;15488;48.114;11.532;2023-07-20T03:56:30;1.97;;;1.70;;
15679;SDS011;15488;48.114;11.532;2023-07-20T03:59:00;2.33;;;1.43;;
15679;SDS011;15488;48.114;11.532;2023-07-20T04:01:28;2.40;;;1.27;;
15679;SDS011;15488;48.114;11.532;2023-07-20T04:03:55;1.53;;;1.43;;
15679;SDS011;15488;48.114;11.532;2023-07-20T04:06:22;1.40;;;1.30;;
15679;SDS011;15488;48.114;11.532;2023-07-20T04:08:51;1.97;;;1.50;;
15679;SDS011;15488;48.114;11.532;2023-07-20T04:11:19;3.57;;;1.67;;
15679;SDS011;15488;48.114;11.532;2023-07-20T04:13:46;2.17;;;1.40;;
15679;SDS011;15488;48.114;11.532;2023-07-20T04:16:14;1.57;;;1.37;;
15679;SDS011;15488;48.114;11.532;2023-07-20T04:18:41;3.87;;;1.47;;
15679;SDS011;15488;48.114;11.532;2023-07-20T04:21:09;1.87;;;1.40;;
15679;SDS011;15488;48.114;11.532;2023-07-20T04:23:36;2.83;;;1.33;;
15679;SDS011;15488;48.114;11.532;2023-07-20T04:26:05;3.40;;;1.70;;
15679;SDS011;15488;48.114;11.532;2023-07-20T04:28:33;2.33;;;1.70;;
15679;SDS011;15488;48.114;11.532;2023-07-20T04:31:09;2.20;;;1.40;;
15679;SDS011;15488;48.114;11.532;2023-07-20T04:33:37;3.10;;;1.40;;
15679;SDS011;15488;48.114;11.532;2023-07-20T04:36:05;2.23;;;1.23;;
15679;SDS011;15488;48.114;11.532;2023-07-20T04:38:34;9.83;;;2.00;;
15679;SDS011;15488;48.114;11.532;2023-07-20T04:41:01;2.00;;;1.50;;
15679;SDS011;15488;48.114;11.532;2023-07-20T04:43:30;2.03;;;1.50;;
15679;SDS011;15488;48.114;11.532;2023-07-20T04:45:57;2.93;;;1.50;;
15679;SDS011;15488;48.114;11.532;2023-07-20T04:48:25;5.27;;;1.60;;
15679;SDS011;15488;48.114;11.532;2023-07-20T04:50:52;1.90;;;1.60;;
15679;SDS011;15488;48.114;11.532;2023-07-20T04:53:20;2.47;;;1.60;;
15679;SDS011;15488;48.114;11.532;2023-07-20T04:55:48;4.30;;;1.70;;
15679;SDS011;15488;48.114;11.532;2023-07-20T04:58:19;2.63;;;1.83;;
15679;SDS011;15488;48.114;11.532;2023-07-20T05:00:49;1.80;;;1.70;;
15679;SDS011;15488;48.114;11.532;2023-07-20T05:03:17;2.33;;;1.63;;
15679;SDS011;15488;48.114;11.532;2023-07-20T05:05:46;4.17;;;1.80;;
15679;SDS011;15488;48.114;11.532;2023-07-20T05:08:13;2.60;;;1.60;;
15679;SDS011;15488;48.114;11.532;2023-07-20T05:10:41;2.40;;;1.50;;
15679;SDS011;15488;48.114;11.532;2023-07-20T05:13:08;4.13;;;1.87;;
15679;SDS011;15488;48.114;11.532;2023-07-20T05:15:36;3.37;;;1.70;;
15679;SDS011;15488;48.114;11.532;2023-07-20T05:18:05;3.27;;;1.70;;
15679;SDS011;15488;48.114;11.532;2023-07-20T05:20:33;3.13;;;1.70;;
15679;SDS011;15488;48.114;11.532;2023-07-20T05:23:02;2.37;;;1.93;;
15679;SDS011;15488;48.114;11.532;2023-07-20T05:25:30;3.23;;;1.83;;
15679;SDS011;15488;48.114;11.532;2023-07-20T05:27:57;1.67;;;1.57;;
15679;SDS011;15488;48.114;11.532;2023-07-20T05:30:25;3.20;;;1.83;;
15679;SDS011;15488;48.114;11.532;2023-07-20T05:32:54;4.93;;;1.80;;
15679;SDS011;15488;48.114;11.532;2023-07-20T05:35:23;2.00;;;1.60;;
15679;SDS011;15488;48.114;11.532;2023-07-20T05:37:51;1.43;;;1.30;;
15679;SDS011;15488;48.114;11.532;2023-07-20T05:40:19;3.03;;;2.00;;
15679;SDS011;15488;48.114;11.532;2023-07-20T05:42:46;2.57;;;1.70;;
15679;SDS011;15488;48.114;11.532;2023-07-20T05:45:17;2.93;;;1.60;;
15679;SDS011;15488;48.114;11.532;2023-07-20T05:47:45;4.07;;;1.70;;
15679;SDS011;15488;48.114;11.532;2023-07-20T05:50:13;3.43;;;1.90;;
15679;SDS011;15488;48.114;11.532;2023-07-20T05:52:42;3.37;;;2.43;;
15679;SDS011;15488;48.114;11.532;2023-07-20T05:55:09;3.60;;;1.93;;
15679;SDS011;15488;48.114;11.532;2023-07-20T05:57:37;2.50;;;1.70;;
15679;SDS011;15488;48.114;11.532;2023-07-20T06:00:07;2.83;;;1.87;;
15679;SDS011;15488;48.114;11.532;2023-07-20T06:02:37;2.10;;;1.50;;
15679;SDS011;15488;48.114;11.532;2023-07-20T06:05:05;1.80;;;1.43;;
15679;SDS011;15488;48.114;11.532;2023-07-20T06:07:34;1.80;;;1.60;;
15679;SDS011;15488;48.114;11.532;2023-07-20T06:10:04;2.00;;;1.70;;
15679;SDS011;15488;48.114;11.532;2023-07-20T06:12:32;2.40;;;1.87;;
15679;SDS011;15488;48.114;11.532;2023-07-20T06:15:01;5.00;;;1.80;;
15679;SDS011;15488;48.114;11.532;2023-07-20T06:17:30;2.00;;;1.47;;
15679;SDS011;15488;48.114;11.532;2023-07-20T06:19:58;2.77;;;1.60;;
15679;SDS011;15488;48.114;11.532;2023-07-20T06:22:25;2.50;;;1.77;;
15679;SDS011;15488;48.114;11.532;2023-07-20T06:24:53;2.30;;;1.40;;
15679;SDS011;15488;48.114;11.532;2023-07-20T06:27:21;2.73;;;1.90;;
15679;SDS011;15488;48.114;11.532;2023-07-20T06:29:49;2.50;;;1.97;;
15679;SDS011;15488;48.114;11.532;2023-07-20T06:32:16;3.70;;;1.70;;
15679;SDS011;15488;48.114;11.532;2023-07-20T06:34:44;3.13;;;1.90;;
15679;SDS011;15488;48.114;11.532;2023-07-20T06:37:12;2.37;;;1.90;;
15679;SDS011;15488;48.114;11.532;2023-07-20T06:39:39;3.23;;;2.20;;
15679;SDS011;15488;48.114;11.532;2023-07-20T06:42:07;3.17;;;1.70;;
15679;SDS011;15488;48.114;11.532;2023-07-20T06:44:36;4.30;;;1.93;;
15679;SDS011;15488;48.114;11.532;2023-07-20T06:47:03;2.07;;;1.80;;
15679;SDS011;15488;48.114;11.532;2023-07-20T06:49:31;4.33;;;1.87;;
15679;SDS011;15488;48.114;11.532;2023-07-20T06:51:59;3.67;;;1.77;;
15679;SDS011;15488;48.114;11.532;2023-07-20T06:54:26;2.07;;;1.70;;
15679;SDS011;15488;48.114;11.532;2023-07-20T06:56:54;3.93;;;2.33;;
15679;SDS011;15488;48.114;11.532;2023-07-20T06:59:21;3.00;;;1.90;;
15679;SDS011;15488;48.114;11.532;2023-07-20T07:01:50;2.27;;;1.90;;
15679;SDS011;15488;48.114;11.532;2023-07-20T07:04:18;4.00;;;2.20;;
15679;SDS011;15488;48.114;11.532;2023-07-20T07:06:45;2.50;;;1.50;;
15679;SDS011;15488;48.114;11.532;2023-07-20T07:09:13;8.30;;;2.13;;
15679;SDS011;15488;48.114;11.532;2023-07-20T07:11:40;2.43;;;1.67;;
15679;SDS011;15488;48.114;11.532;2023-07-20T07:14:08;2.67;;;1.57;;
15679;SDS011;15488;48.114;11.532;2023-07-20T07:16:35;4.57;;;1.73;;
15679;SDS011;15488;48.114;11.532;2023-07-20T07:19:04;2.87;;;1.80;;
15679;SDS011;15488;48.114;11.532;2023-07-20T07:21:32;3.47;;;1.90;;
15679;SDS011;15488;48.114;11.532;2023-07-20T07:24:00;2.17;;;1.60;;
15679;SDS011;15488;48.114;11.532;2023-07-20T07:26:28;2.57;;;1.80;;
15679;SDS011;15488;48.114;11.532;2023-07-20T07:28:56;2.63;;;1.70;;
15679;SDS011;15488;48.114;11.532;2023-07-20T07:31:24;2.13;;;1.80;;
15679;SDS011;15488;48.114;11.532;2023-07-20T07:33:52;2.43;;;1.60;;
15679;SDS011;15488;48.114;11.532;2023-07-20T07:36:20;3.30;;;2.03;;
15679;SDS011;15488;48.114;11.532;2023-07-20T07:38:49;2.60;;;1.70;;
15679;SDS011;15488;48.114;11.532;2023-07-20T07:41:17;2.73;;;1.87;;
15679;SDS011;15488;48.114;11.532;2023-07-20T07:43:44;2.40;;;1.70;;
15679;SDS011;15488;48.114;11.532;2023-07-20T07:46:12;3.80;;;1.80;;
15679;SDS011;15488;48.114;11.532;2023-07-20T07:48:39;1.97;;;1.77;;
15679;SDS011;15488;48.114;11.532;2023-07-20T07:51:07;2.50;;;2.00;;
15679;SDS011;15488;48.114;11.532;2023-07-20T07:53:36;5.07;;;2.90;;
15679;SDS011;15488;48.114;11.532;2023-07-20T07:56:06;6.80;;;3.33;;
15679;SDS011;15488;48.114;11.532;2023-07-20T07:58:34;2.47;;;2.27;;
15679;SDS011;15488;48.114;11.532;2023-07-20T08:01:02;1.83;;;1.73;;
15679;SDS011;15488;48.114;11.532;2023-07-20T08:03:30;3.53;;;2.00;;
15679;SDS011;15488;48.114;11.532;2023-07-20T08:05:57;2.07;;;1.80;;
15679;SDS011;15488;48.114;11.532;2023-07-20T08:08:25;2.00;;;1.60;;
15679;SDS011;15488;48.114;11.532;2023-07-20T08:10:54;3.27;;;1.77;;
15679;SDS011;15488;48.114;11.532;2023-07-20T08:13:21;2.97;;;2.00;;
15679;SDS011;15488;48.114;11.532;2023-07-20T08:15:49;3.63;;;2.00;;
15679;SDS011;15488;48.114;11.532;2023-07-20T08:18:17;2.73;;;2.23;;
15679;SDS011;15488;48.114;11.532;2023-07-20T08:20:45;2.87;;;2.00;;
15679;SDS011;15488;48.114;11.532;2023-07-20T08:23:14;3.03;;;1.90;;
15679;SDS011;15488;48.114;11.532;2023-07-20T08:25:41;2.80;;;2.10;;
15679;SDS011;15488;48.114;11.532;2023-07-20T08:28:11;2.17;;;1.90;;
15679;SDS011;15488;48.114;11.532;2023-07-20T08:30:40;6.07;;;2.90;;
15679;SDS011;15488;48.114;11.532;2023-07-20T08:33:08;4.10;;;1.90;;
15679;SDS011;15488;48.114;11.532;2023-07-20T08:35:36;2.57;;;2.13;;
15679;SDS011;15488;48.114;11.532;2023-07-20T08:38:04;3.17;;;2.07;;
15679;SDS011;15488;48.114;11.532;2023-07-20T08:40:32;2.43;;;1.93;;
15679;SDS011;15488;48.114;11.532;2023-07-20T08:43:04;2.73;;;2.13;;
15679;SDS011;15488;48.114;11.532;2023-07-20T08:45:33;4.03;;;2.13;;
15679;SDS011;15488;48.114;11.532;2023-07-20T08:48:02;2.63;;;1.87;;
15679;SDS011;15488;48.114;11.532;2023-07-20T08:50:31;1.93;;;1.80;;
15679;SDS011;15488;48.114;11.532;2023-07-20T08:53:00;2.30;;;1.97;;
15679;SDS011;15488;48.114;11.532;2023-07-20T08:55:28;2.13;;;1.80;;
15679;SDS011;15488;48.114;11.532;2023-07-20T08:57:57;2.63;;;2.00;;
15679;SDS011;15488;48.114;11.532;2023-07-20T09:00:26;4.17;;;2.00;;
15679;SDS011;15488;48.114;11.532;2023-07-20T09:02:56;2.20;;;1.97;;
15679;SDS011;15488;48.114;11.532;2023-07-20T09:05:25;5.23;;;1.90;;
15679;SDS011;15488;48.114;11.532;2023-07-20T09:07:53;3.93;;;2.10;;
15679;SDS011;15488;48.114;11.532;2023-07-20T09:10:20;3.17;;;2.07;;
15679;SDS011;15488;48.114;11.532;2023-07-20T09:12:48;3.50;;;1.80;;
15679;SDS011;15488;48.114;11.532;2023-07-20T09:15:16;3.60;;;1.90;;
15679;SDS011;15488;48.114;11.532;2023-07-20T09:17:47;3.00;;;1.90;;
15679;SDS011;15488;48.114;11.532;2023-07-20T09:20:17;3.57;;;1.90;;
15679;SDS011;15488;48.114;11.532;2023-07-20T09:22:45;2.47;;;2.00;;
15679;SDS011;15488;48.114;11.532;2023-07-20T09:25:15;3.90;;;2.00;;
15679;SDS011;15488;48.114;11.532;2023-07-20T09:27:45;3.10;;;2.13;;
15679;SDS011;15488;48.114;11.532;2023-07-20T09:30:14;5.60;;;1.90;;
15679;SDS011;15488;48.114;11.532;2023-07-20T09:32:43;1.90;;;1.70;;
15679;SDS011;15488;48.114;11.532;2023-07-20T09:35:14;2.17;;;1.70;;
15679;SDS011;15488;48.114;11.532;2023-07-20T09:37:47;2.17;;;1.80;;
15679;SDS011;15488;48.114;11.532;2023-07-20T09:40:17;2.60;;;2.33;;
15679;SDS011;15488;48.114;11.532;2023-07-20T09:42:46;2.37;;;1.90;;
15679;SDS011;15488;48.114;11.532;2023-07-20T09:45:14;2.40;;;2.20;;
15679;SDS011;15488;48.114;11.532;2023-07-20T09:47:41;3.07;;;1.93;;
15679;SDS011;15488;48.114;11.532;2023-07-20T09:50:09;3.03;;;2.43;;
15679;SDS011;15488;48.114;11.532;2023-07-20T09:52:38;6.13;;;1.93;;
15679;SDS011;15488;48.114;11.532;2023-07-20T09:55:09;2.83;;;1.90;;
15679;SDS011;15488;48.114;11.532;2023-07-20T09:57:38;3.67;;;2.50;;
15679;SDS011;15488;48.114;11.532;2023-07-20T10:00:06;2.10;;;1.90;;
15679;SDS011;15488;48.114;11.532;2023-07-20T10:02:40;3.27;;;2.20;;
15679;SDS011;15488;48.114;11.532;2023-07-20T10:05:10;3.07;;;2.10;;
15679;SDS011;15488;48.114;11.532;2023-07-20T10:07:43;2.97;;;2.03;;
15679;SDS011;15488;48.114;11.532;2023-07-20T10:10:13;2.97;;;2.20;;
15679;SDS011;15488;48.114;11.532;2023-07-20T10:12:43;2.30;;;2.07;;
15679;SDS011;15488;48.114;11.532;2023-07-20T10:15:15;2.97;;;2.50;;
15679;SDS011;15488;48.114;11.532;2023-07-20T10:17:58;3.33;;;2.07;;
15679;SDS011;15488;48.114;11.532;2023-07-20T10:20:29;3.40;;;2.00;;
15679;SDS011;15488;48.114;11.532;2023-07-20T10:22:59;2.40;;;2.20;;
15679;SDS011;15488;48.114;11.532;2023-07-20T10:25:28;2.97;;;2.30;;
15679;SDS011;15488;48.114;11.532;2023-07-20T10:27:56;3.17;;;2.87;;
15679;SDS011;15488;48.114;11.532;2023-07-20T10:30:24;3.10;;;2.07;;
15679;SDS011;15488;48.114;11.532;2023-07-20T10:32:52;2.83;;;1.90;;
15679;SDS011;15488;48.114;11.532;2023-07-20T10:35:20;2.23;;;2.03;;
15679;SDS011;15488;48.114;11.532;2023-07-20T10:37:48;3.63;;;1.93;;
15679;SDS011;15488;48.114;11.532;2023-07-20T10:40:28;2.45;;;1.88;;
15679;SDS011;15488;48.114;11.532;2023-07-20T10:42:58;3.30;;;2.30;;
15679;SDS011;15488;48.114;11.532;2023-07-20T10:45:33;2.27;;;2.00;;
15679;SDS011;15488;48.114;11.532;2023-07-20T10:48:04;3.15;;;2.10;;
15679;SDS011;15488;48.114;11.532;2023-07-20T10:50:38;2.97;;;2.70;;
15679;SDS011;15488;48.114;11.532;2023-07-20T10:53:10;3.10;;;2.40;;
15679;SDS011;15488;48.114;11.532;2023-07-20T10:55:43;2.60;;;2.22;;
15679;SDS011;15488;48.114;11.532;2023-07-20T10:58:12;2.72;;;1.85;;
15679;SDS011;15488;48.114;11.532;2023-07-20T11:00:54;2.67;;;2.20;;
15679;SDS011;15488;48.114;11.532;2023-07-20T11:03:31;3.13;;;2.10;;
15679;SDS011;15488;48.114;11.532;2023-07-20T11:06:00;2.97;;;2.05;;
15679;SDS011;15488;48.114;11.532;2023-07-20T11:09:03;2.40;;;2.10;;
15679;SDS011;15488;48.114;11.532;2023-07-20T11:11:37;2.50;;;2.30;;
15679;SDS011;15488;48.114;11.532;2023-07-20T11:14:06;1.95;;;1.75;;
15679;SDS011;15488;48.114;11.532;2023-07-20T11:16:36;2.40;;;1.80;;
15679;SDS011;15488;48.114;11.532;2023-07-20T11:19:05;2.55;;;1.50;;
15679;SDS011;15488;48.114;11.532;2023-07-20T11:21:40;2.78;;;2.00;;
15679;SDS011;15488;48.114;11.532;2023-07-20T11:24:09;1.88;;;1.77;;
15679;SDS011;15488;48.114;11.532;2023-07-20T11:26:46;2.42;;;2.05;;
15679;SDS011;15488;48.114;11.532;2023-07-20T11:29:15;2.05;;;1.85;;
15679;SDS011;15488;48.114;11.532;2023-07-20T11:31:44;2.35;;;1.88;;
15679;SDS011;15488;48.114;11.532;2023-07-20T11:34:12;1.90;;;1.80;;
15679;SDS011;15488;48.114;11.532;2023-07-20T11:36:42;1.92;;;1.80;;
15679;SDS011;15488;48.114;11.532;2023-07-20T11:39:11;2.20;;;2.00;;
15679;SDS011;15488;48.114;11.532;2023-07-20T11:41:43;2.97;;;1.90;;
15679;SDS011;15488;48.114;11.532;2023-07-20T11:44:13;3.33;;;2.20;;
15679;SDS011;15488;48.114;11.532;2023-07-20T11:46:42;2.22;;;1.77;;
15679;SDS011;15488;48.114;11.532;2023-07-20T11:49:10;2.92;;;1.50;;
15679;SDS011;15488;48.114;11.532;2023-07-20T11:51:38;2.97;;;1.83;;
15679;SDS011;15488;48.114;11.532;2023-07-20T11:54:09;2.58;;;1.85;;
15679;SDS011;15488;48.114;11.532;2023-07-20T11:56:37;2.78;;;2.28;;
15679;SDS011;15488;48.114;11.532;2023-07-20T11:59:10;2.20;;;2.00;;
15679;SDS011;15488;48.114;11.532;2023-07-20T12:01:38;3.03;;;1.90;;
15679;SDS011;15488;48.114;11.532;2023-07-20T12:04:05;3.72;;;2.00;;
15679;SDS011;15488;48.114;11.532;2023-07-20T12:06:32;1.80;;;1.70;;
15679;SDS011;15488;48.114;11.532;2023-07-20T12:09:00;2.25;;;1.90;;
15679;SDS011;15488;48.114;11.532;2023-07-20T12:11:31;2.63;;;2.30;;
15679;SDS011;15488;48.114;11.532;2023-07-20T12:13:59;2.50;;;1.80;;
15679;SDS011;15488;48.114;11.532;2023-07-20T12:16:29;2.25;;;1.80;;
15679;SDS011;15488;48.114;11.532;2023-07-20T12:19:00;2.13;;;1.85;;
15679;SDS011;15488;48.114;11.532;2023-07-20T12:21:28;2.35;;;2.00;;
15679;SDS011;15488;48.114;11.532;2023-07-20T12:23:57;2.80;;;1.98;;
15679;SDS011;15488;48.114;11.532;2023-07-20T12:26:25;2.03;;;1.58;;
15679;SDS011;15488;48.114;11.532;2023-07-20T12:28:55;1.92;;;1.75;;
15679;SDS011;15488;48.114;11.532;2023-07-20T12:31:23;2.05;;;1.90;;
15679;SDS011;15488;48.114;11.532;2023-07-20T12:33:52;2.38;;;1.90;;
15679;SDS011;15488;48.114;11.532;2023-07-20T12:36:21;2.13;;;1.77;;
15679;SDS011;15488;48.114;11.532;2023-07-20T12:38:49;2.08;;;1.70;;
15679;SDS011;15488;48.114;11.532;2023-07-20T12:41:16;2.22;;;1.63;;
15679;SDS011;15488;48.114;11.532;2023-07-20T12:43:44;2.50;;;1.90;;
15679;SDS011;15488;48.114;11.532;2023-07-20T12:46:13;1.98;;;1.80;;
15679;SDS011;15488;48.114;11.532;2023-07-20T12:48:41;2.00;;;1.83;;
15679;SDS011;15488;48.114;11.532;2023-07-20T12:51:11;2.78;;;2.10;;
15679;SDS011;15488;48.114;11.532;2023-07-20T12:53:38;2.50;;;1.80;;
15679;SDS011;15488;48.114;11.532;2023-07-20T12:56:06;1.95;;;1.80;;
15679;SDS011;15488;48.114;11.532;2023-07-20T12:58:33;3.10;;;2.08;;
15679;SDS011;15488;48.114;11.532;2023-07-20T13:01:01;3.47;;;1.92;;
15679;SDS011;15488;48.114;11.532;2023-07-20T13:03:29;4.15;;;1.90;;
15679;SDS011;15488;48.114;11.532;2023-07-20T13:05:56;2.15;;;1.80;;
15679;SDS011;15488;48.114;11.532;2023-07-20T13:08:25;2.28;;;2.08;;
15679;SDS011;15488;48.114;11.532;2023-07-20T13:10:53;2.05;;;1.85;;
15679;SDS011;15488;48.114;11.532;2023-07-20T13:13:20;6.40;;;2.00;;
15679;SDS011;15488;48.114;11.532;2023-07-20T13:15:48;2.00;;;1.85;;
15679;SDS011;15488;48.114;11.532;2023-07-20T13:18:15;2.00;;;1.80;;
15679;SDS011;15488;48.114;11.532;2023-07-20T13:20:43;4.70;;;1.92;;
15679;SDS011;15488;48.114;11.532;2023-07-20T13:23:11;2.40;;;2.20;;
15679;SDS011;15488;48.114;11.532;2023-07-20T13:25:39;2.28;;;1.80;;
15679;SDS011;15488;48.114;11.532;2023-07-20T13:28:07;3.33;;;1.85;;
15679;SDS011;15488;48.114;11.532;2023-07-20T13:30:35;2.10;;;2.00;;
15679;SDS011;15488;48.114;11.532;2023-07-20T13:33:04;5.18;;;2.35;;
15679;SDS011;15488;48.114;11.532;2023-07-20T13:35:31;2.50;;;2.20;;
15679;SDS011;15488;48.114;11.532;2023-07-20T13:37:59;3.15;;;2.10;;
15679;SDS011;15488;48.114;11.532;2023-07-20T13:40:26;2.55;;;1.85;;
15679;SDS011;15488;48.114;11.532;2023-07-20T13:42:55;2.50;;;2.30;;
15679;SDS011;15488;48.114;11.532;2023-07-20T13:45:22;2.15;;;2.00;;
15679;SDS011;15488;48.114;11.532;2023-07-20T13:47:50;2.30;;;2.10;;
15679;SDS011;15488;48.114;11.532;2023-07-20T13:50:17;2.70;;;2.50;;
15679;SDS011;15488;48.114;11.532;2023-07-20T13:52:45;2.63;;;2.30;;
15679;SDS011;15488;48.114;11.532;2023-07-20T13:55:12;2.42;;;2.33;;
15679;SDS011;15488;48.114;11.532;2023-07-20T13:57:40;2.10;;;2.00;;
15679;SDS011;15488;48.114;11.532;2023-07-20T14:00:09;2.75;;;2.40;;
15679;SDS011;15488;48.114;11.532;2023-07-20T14:02:38;3.65;;;3.40;;
15679;SDS011;15488;48.114;11.532;2023-07-20T14:05:06;3.47;;;3.28;;
15679;SDS011;15488;48.114;11.532;2023-07-20T14:07:34;4.10;;;3.70;;
15679;SDS011;15488;48.114;11.532;2023-07-20T14:10:02;4.97;;;4.68;;
15679;SDS011;15488;48.114;11.532;2023-07-20T14:12:30;4.63;;;4.43;;
15679;SDS011;15488;48.114;11.532;2023-07-20T14:14:57;4.90;;;4.40;;
15679;SDS011;15488;48.114;11.532;2023-07-20T14:17:26;4.70;;;4.50;;
15679;SDS011;15488;48.114;11.532;2023-07-20T14:19:53;5.00;;;4.80;;
15679;SDS011;15488;48.114;11.532;2023-07-20T14:22:21;5.00;;;4.60;;
15679;SDS011;15488;48.114;11.532;2023-07-20T14:24:49;6.03;;;5.53;;
15679;SDS011;15488;48.114;11.532;2023-07-20T14:27:16;5.30;;;5.00;;
15679;SDS011;15488;48.114;11.532;2023-07-20T14:29:44;5.20;;;4.90;;
15679;SDS011;15488;48.114;11.532;2023-07-20T14:32:11;2.80;;;2.60;;
15679;SDS011;15488;48.114;11.532;2023-07-20T14:34:40;4.57;;;4.20;;
15679;SDS011;15488;48.114;11.532;2023-07-20T14:37:08;4.30;;;4.10;;
15679;SDS011;15488;48.114;11.532;2023-07-20T14:39:37;4.22;;;4.03;;
15679;SDS011;15488;48.114;11.532;2023-07-20T14:42:04;4.50;;;4.30;;
15679;SDS011;15488;48.114;11.532;2023-07-20T14:44:33;4.18;;;3.97;;
15679;SDS011;15488;48.114;11.532;2023-07-20T14:47:00;4.32;;;4.10;;